sensor_id;sensor_type;location;lat;lon;timestamp;P1;durP1;ratioP1;P2;durP2;ratioP2
15454;SDS011;21057;51.024;7.540;2023-11-21T00:00:51;40.63;;;38.13;;
15454;SDS011;21057;51.024;7.540;2023-11-21T00:03:18;43.27;;;40.33;;
15454;SDS011;21057;51.024;7.540;2023-11-21T00:05:45;42.43;;;39.83;;
15454;SDS011;21057;51.024;7.540;2023-11-21T00:08:13;43.93;;;41.13;;
15454;SDS011;21057;51.024;7.540;2023-11-21T00:10:39;42.73;;;39.67;;
15454;SDS011;21057;51.024;7.540;2023-11-21T00:13:06;41.30;;;38.70;;
15454;SDS011;21057;51.024;7.540;2023-11-21T00:15:33;43.97;;;41.23;;
15454;SDS011;21057;51.024;7.540;2023-11-21T00:18:01;42.97;;;40.37;;
15454;SDS011;21057;51.024;7.540;2023-11-21T00:20:28;44.40;;;41.30;;
15454;SDS011;21057;51.024;7.540;2023-11-21T00:22:55;40.53;;;38.03;;
15454;SDS011;21057;51.024;7.540;2023-11-21T00:25:22;40.97;;;38.23;;
15454;SDS011;21057;51.024;7.540;2023-11-21T00:27:50;42.70;;;39.67;;
15454;SDS011;21057;51.024;7.540;2023-11-21T00:30:17;41.83;;;39.27;;
15454;SDS011;21057;51.024;7.540;2023-11-21T00:32:45;40.27;;;37.43;;
15454;SDS011;21057;51.024;7.540;2023-11-21T00:35:13;40.67;;;38.07;;
15454;SDS011;21057;51.024;7.540;2023-11-21T00:37:41;39.80;;;36.77;;
15454;SDS011;21057;51.024;7.540;2023-11-21T00:40:08;43.20;;;40.13;;
15454;SDS011;21057;51.024;7.540;2023-11-21T00:42:36;40.23;;;37.63;;
15454;SDS011;21057;51.024;7.540;2023-11-21T00:45:03;38.43;;;35.60;;
15454;SDS011;21057;51.024;7.540;2023-11-21T00:47:31;39.60;;;37.13;;
15454;SDS011;21057;51.024;7.540;2023-11-21T00:49:58;39.83;;;37.00;;
15454;SDS011;21057;51.024;7.540;2023-11-21T00:52:26;40.53;;;37.97;;
15454;SDS011;21057;51.024;7.540;2023-11-21T00:54:52;40.93;;;38.13;;
15454;SDS011;21057;51.024;7.540;2023-11-21T00:57:19;40.77;;;38.17;;
15454;SDS011;21057;51.024;7.540;2023-11-21T00:59:46;40.07;;;37.57;;
15454;SDS011;21057;51.024;7.540;2023-11-21T01:02:13;40.50;;;37.80;;
15454;SDS011;21057;51.024;7.540;2023-11-21T01:04:40;39.97;;;37.20;;
15454;SDS011;21057;51.024;7.540;2023-11-21T01:07:07;39.07;;;36.37;;
15454;SDS011;21057;51.024;7.540;2023-11-21T01:09:35;40.93;;;38.07;;
15454;SDS011;21057;51.024;7.540;2023-11-21T01:12:02;40.53;;;37.83;;
15454;SDS011;21057;51.024;7.540;2023-11-21T01:14:29;40.20;;;37.50;;
15454;SDS011;21057;51.024;7.540;2023-11-21T01:16:56;42.17;;;39.30;;
15454;SDS011;21057;51.024;7.540;2023-11-21T01:19:23;42.43;;;39.43;;
15454;SDS011;21057;51.024;7.540;2023-11-21T01:21:50;42.33;;;39.37;;
15454;SDS011;21057;51.024;7.540;2023-11-21T01:24:17;43.40;;;40.50;;
15454;SDS011;21057;51.024;7.540;2023-11-21T01:26:45;43.70;;;40.63;;
15454;SDS011;21057;51.024;7.540;2023-11-21T01:29:13;43.23;;;40.13;;
15454;SDS011;21057;51.024;7.540;2023-11-21T01:31:40;43.90;;;40.97;;
15454;SDS011;21057;51.024;7.540;2023-11-21T01:34:06;43.23;;;40.40;;
15454;SDS011;21057;51.024;7.540;2023-11-21T01:36:33;45.47;;;42.23;;
15454;SDS011;21057;51.024;7.540;2023-11-21T01:39:00;43.67;;;40.77;;
15454;SDS011;21057;51.024;7.540;2023-11-21T01:41:27;44.40;;;41.30;;
15454;SDS011;21057;51.024;7.540;2023-11-21T01:43:57;46.37;;;43.13;;
15454;SDS011;21057;51.024;7.540;2023-11-21T01:46:23;42.50;;;39.77;;
15454;SDS011;21057;51.024;7.540;2023-11-21T01:48:50;43.07;;;40.07;;
15454;SDS011;21057;51.024;7.540;2023-11-21T01:51:19;43.93;;;40.73;;
15454;SDS011;21057;51.024;7.540;2023-11-21T01:53:46;43.13;;;40.23;;
15454;SDS011;21057;51.024;7.540;2023-11-21T01:56:13;43.73;;;40.43;;
15454;SDS011;21057;51.024;7.540;2023-11-21T01:58:40;44.40;;;41.43;;
15454;SDS011;21057;51.024;7.540;2023-11-21T02:01:09;43.80;;;40.87;;
15454;SDS011;21057;51.024;7.540;2023-11-21T02:03:36;43.30;;;40.23;;
15454;SDS011;21057;51.024;7.540;2023-11-21T02:06:03;43.00;;;39.87;;
15454;SDS011;21057;51.024;7.540;2023-11-21T02:08:31;43.83;;;40.70;;
15454;SDS011;21057;51.024;7.540;2023-11-21T02:10:58;43.47;;;40.67;;
15454;SDS011;21057;51.024;7.540;2023-11-21T02:13:25;41.63;;;38.93;;
15454;SDS011;21057;51.024;7.540;2023-11-21T02:15:51;44.27;;;41.37;;
15454;SDS011;21057;51.024;7.540;2023-11-21T02:18:20;42.87;;;39.87;;
15454;SDS011;21057;51.024;7.540;2023-11-21T02:20:48;43.03;;;40.23;;
15454;SDS011;21057;51.024;7.540;2023-11-21T02:23:16;45.77;;;42.73;;
15454;SDS011;21057;51.024;7.540;2023-11-21T02:25:43;42.90;;;39.90;;
15454;SDS011;21057;51.024;7.540;2023-11-21T02:28:10;41.87;;;39.10;;
15454;SDS011;21057;51.024;7.540;2023-11-21T02:30:37;45.33;;;41.93;;
15454;SDS011;21057;51.024;7.540;2023-11-21T02:33:04;44.73;;;41.73;;
15454;SDS011;21057;51.024;7.540;2023-11-21T02:35:32;43.87;;;40.93;;
15454;SDS011;21057;51.024;7.540;2023-11-21T02:38:00;44.17;;;41.27;;
15454;SDS011;21057;51.024;7.540;2023-11-21T02:40:28;41.50;;;38.70;;
15454;SDS011;21057;51.024;7.540;2023-11-21T02:42:55;44.67;;;41.37;;
15454;SDS011;21057;51.024;7.540;2023-11-21T02:45:24;43.53;;;40.03;;
15454;SDS011;21057;51.024;7.540;2023-11-21T02:47:51;42.20;;;39.20;;
15454;SDS011;21057;51.024;7.540;2023-11-21T02:50:22;45.83;;;42.17;;
15454;SDS011;21057;51.024;7.540;2023-11-21T02:52:48;42.90;;;40.00;;
15454;SDS011;21057;51.024;7.540;2023-11-21T02:55:16;42.67;;;39.50;;
15454;SDS011;21057;51.024;7.540;2023-11-21T02:57:44;41.90;;;39.10;;
15454;SDS011;21057;51.024;7.540;2023-11-21T03:00:11;42.27;;;39.07;;
15454;SDS011;21057;51.024;7.540;2023-11-21T03:02:40;44.57;;;41.40;;
15454;SDS011;21057;51.024;7.540;2023-11-21T03:05:07;44.80;;;41.23;;
15454;SDS011;21057;51.024;7.540;2023-11-21T03:07:35;46.10;;;42.10;;
15454;SDS011;21057;51.024;7.540;2023-11-21T03:10:02;43.43;;;40.37;;
15454;SDS011;21057;51.024;7.540;2023-11-21T03:12:30;43.73;;;40.20;;
15454;SDS011;21057;51.024;7.540;2023-11-21T03:14:58;47.43;;;43.17;;
15454;SDS011;21057;51.024;7.540;2023-11-21T03:17:26;47.73;;;44.07;;
15454;SDS011;21057;51.024;7.540;2023-11-21T03:19:54;46.30;;;42.43;;
15454;SDS011;21057;51.024;7.540;2023-11-21T03:22:22;45.27;;;41.50;;
15454;SDS011;21057;51.024;7.540;2023-11-21T03:24:49;48.30;;;44.60;;
15454;SDS011;21057;51.024;7.540;2023-11-21T03:27:16;45.83;;;42.17;;
15454;SDS011;21057;51.024;7.540;2023-11-21T03:29:43;47.47;;;43.90;;
15454;SDS011;21057;51.024;7.540;2023-11-21T03:32:11;44.53;;;41.00;;
15454;SDS011;21057;51.024;7.540;2023-11-21T03:34:52;45.57;;;41.77;;
15454;SDS011;21057;51.024;7.540;2023-11-21T03:37:21;44.30;;;40.43;;
15454;SDS011;21057;51.024;7.540;2023-11-21T03:39:48;41.70;;;38.40;;
15454;SDS011;21057;51.024;7.540;2023-11-21T03:42:15;43.03;;;40.00;;
15454;SDS011;21057;51.024;7.540;2023-11-21T03:44:41;43.97;;;40.43;;
15454;SDS011;21057;51.024;7.540;2023-11-21T03:47:08;46.53;;;42.57;;
15454;SDS011;21057;51.024;7.540;2023-11-21T03:49:37;46.60;;;42.87;;
15454;SDS011;21057;51.024;7.540;2023-11-21T03:52:04;45.97;;;42.23;;
15454;SDS011;21057;51.024;7.540;2023-11-21T03:54:32;47.77;;;44.13;;
15454;SDS011;21057;51.024;7.540;2023-11-21T03:56:59;46.00;;;42.80;;
15454;SDS011;21057;51.024;7.540;2023-11-21T03:59:26;48.10;;;44.50;;
15454;SDS011;21057;51.024;7.540;2023-11-21T04:01:54;50.03;;;46.00;;
15454;SDS011;21057;51.024;7.540;2023-11-21T04:04:22;48.20;;;44.57;;
15454;SDS011;21057;51.024;7.540;2023-11-21T04:06:50;48.43;;;44.50;;
15454;SDS011;21057;51.024;7.540;2023-11-21T04:09:18;47.50;;;43.67;;
15454;SDS011;21057;51.024;7.540;2023-11-21T04:11:45;48.53;;;44.60;;
15454;SDS011;21057;51.024;7.540;2023-11-21T04:14:12;45.87;;;42.53;;
15454;SDS011;21057;51.024;7.540;2023-11-21T04:16:40;47.73;;;43.53;;
15454;SDS011;21057;51.024;7.540;2023-11-21T04:19:07;49.33;;;45.40;;
15454;SDS011;21057;51.024;7.540;2023-11-21T04:21:35;49.43;;;45.37;;
15454;SDS011;21057;51.024;7.540;2023-11-21T04:24:03;47.20;;;43.43;;
15454;SDS011;21057;51.024;7.540;2023-11-21T04:26:31;50.47;;;46.30;;
15454;SDS011;21057;51.024;7.540;2023-11-21T04:28:58;47.87;;;44.50;;
15454;SDS011;21057;51.024;7.540;2023-11-21T04:31:24;48.60;;;44.83;;
15454;SDS011;21057;51.024;7.540;2023-11-21T04:33:51;49.10;;;44.27;;
15454;SDS011;21057;51.024;7.540;2023-11-21T04:36:18;48.50;;;44.13;;
15454;SDS011;21057;51.024;7.540;2023-11-21T04:38:46;48.93;;;45.23;;
15454;SDS011;21057;51.024;7.540;2023-11-21T04:41:14;50.73;;;46.00;;
15454;SDS011;21057;51.024;7.540;2023-11-21T04:43:41;50.40;;;46.10;;
15454;SDS011;21057;51.024;7.540;2023-11-21T04:46:08;50.50;;;45.67;;
15454;SDS011;21057;51.024;7.540;2023-11-21T04:48:35;50.10;;;46.07;;
15454;SDS011;21057;51.024;7.540;2023-11-21T04:51:02;51.90;;;46.67;;
15454;SDS011;21057;51.024;7.540;2023-11-21T04:53:30;49.43;;;44.77;;
15454;SDS011;21057;51.024;7.540;2023-11-21T04:55:57;48.07;;;44.00;;
15454;SDS011;21057;51.024;7.540;2023-11-21T04:58:25;51.27;;;47.03;;
15454;SDS011;21057;51.024;7.540;2023-11-21T05:00:52;50.47;;;46.73;;
15454;SDS011;21057;51.024;7.540;2023-11-21T05:03:19;51.93;;;47.67;;
15454;SDS011;21057;51.024;7.540;2023-11-21T05:05:48;52.73;;;48.47;;
15454;SDS011;21057;51.024;7.540;2023-11-21T05:08:15;49.40;;;45.17;;
15454;SDS011;21057;51.024;7.540;2023-11-21T05:10:42;48.77;;;44.57;;
15454;SDS011;21057;51.024;7.540;2023-11-21T05:13:09;50.53;;;46.33;;
15454;SDS011;21057;51.024;7.540;2023-11-21T05:15:37;49.23;;;45.30;;
15454;SDS011;21057;51.024;7.540;2023-11-21T05:18:03;50.97;;;47.07;;
15454;SDS011;21057;51.024;7.540;2023-11-21T05:20:30;56.90;;;51.73;;
15454;SDS011;21057;51.024;7.540;2023-11-21T05:22:58;54.50;;;50.20;;
15454;SDS011;21057;51.024;7.540;2023-11-21T05:25:25;55.33;;;50.43;;
15454;SDS011;21057;51.024;7.540;2023-11-21T05:27:51;52.47;;;47.73;;
15454;SDS011;21057;51.024;7.540;2023-11-21T05:30:19;50.90;;;46.80;;
15454;SDS011;21057;51.024;7.540;2023-11-21T05:32:48;52.87;;;48.00;;
15454;SDS011;21057;51.024;7.540;2023-11-21T05:35:15;50.00;;;45.67;;
15454;SDS011;21057;51.024;7.540;2023-11-21T05:37:43;50.37;;;46.43;;
15454;SDS011;21057;51.024;7.540;2023-11-21T05:40:10;51.93;;;47.57;;
15454;SDS011;21057;51.024;7.540;2023-11-21T05:42:38;53.63;;;49.57;;
15454;SDS011;21057;51.024;7.540;2023-11-21T05:45:06;51.13;;;46.83;;
15454;SDS011;21057;51.024;7.540;2023-11-21T05:47:36;51.03;;;46.93;;
15454;SDS011;21057;51.024;7.540;2023-11-21T05:50:06;50.33;;;46.43;;
15454;SDS011;21057;51.024;7.540;2023-11-21T05:52:37;52.20;;;47.93;;
15454;SDS011;21057;51.024;7.540;2023-11-21T05:55:04;50.63;;;47.20;;
15454;SDS011;21057;51.024;7.540;2023-11-21T05:57:32;53.73;;;49.23;;
15454;SDS011;21057;51.024;7.540;2023-11-21T06:00:01;52.87;;;48.53;;
15454;SDS011;21057;51.024;7.540;2023-11-21T06:02:29;51.50;;;47.23;;
15454;SDS011;21057;51.024;7.540;2023-11-21T06:04:56;54.00;;;49.43;;
15454;SDS011;21057;51.024;7.540;2023-11-21T06:07:25;50.23;;;46.73;;
15454;SDS011;21057;51.024;7.540;2023-11-21T06:09:51;48.80;;;45.43;;
15454;SDS011;21057;51.024;7.540;2023-11-21T06:12:18;49.00;;;45.53;;
15454;SDS011;21057;51.024;7.540;2023-11-21T06:14:45;50.30;;;45.93;;
15454;SDS011;21057;51.024;7.540;2023-11-21T06:17:13;50.20;;;44.93;;
15454;SDS011;21057;51.024;7.540;2023-11-21T06:19:39;46.43;;;43.03;;
15454;SDS011;21057;51.024;7.540;2023-11-21T06:22:06;49.20;;;44.67;;
15454;SDS011;21057;51.024;7.540;2023-11-21T06:24:35;48.47;;;44.07;;
15454;SDS011;21057;51.024;7.540;2023-11-21T06:27:03;51.00;;;46.77;;
15454;SDS011;21057;51.024;7.540;2023-11-21T06:29:30;50.87;;;45.70;;
15454;SDS011;21057;51.024;7.540;2023-11-21T06:31:57;49.70;;;45.60;;
15454;SDS011;21057;51.024;7.540;2023-11-21T06:34:24;51.47;;;47.33;;
15454;SDS011;21057;51.024;7.540;2023-11-21T06:36:52;48.47;;;44.70;;
15454;SDS011;21057;51.024;7.540;2023-11-21T06:39:19;52.93;;;47.67;;
15454;SDS011;21057;51.024;7.540;2023-11-21T06:41:49;53.23;;;49.00;;
15454;SDS011;21057;51.024;7.540;2023-11-21T06:44:15;56.40;;;50.80;;
15454;SDS011;21057;51.024;7.540;2023-11-21T06:46:42;54.33;;;49.93;;
15454;SDS011;21057;51.024;7.540;2023-11-21T06:49:09;53.70;;;48.90;;
15454;SDS011;21057;51.024;7.540;2023-11-21T06:51:37;55.40;;;50.70;;
15454;SDS011;21057;51.024;7.540;2023-11-21T06:54:04;51.93;;;48.23;;
15454;SDS011;21057;51.024;7.540;2023-11-21T06:56:32;51.20;;;47.33;;
15454;SDS011;21057;51.024;7.540;2023-11-21T06:59:00;51.60;;;47.30;;
15454;SDS011;21057;51.024;7.540;2023-11-21T07:01:28;47.27;;;43.53;;
15454;SDS011;21057;51.024;7.540;2023-11-21T07:03:55;48.40;;;44.77;;
15454;SDS011;21057;51.024;7.540;2023-11-21T07:06:20;48.10;;;43.77;;
15454;SDS011;21057;51.024;7.540;2023-11-21T07:08:47;48.77;;;44.80;;
15454;SDS011;21057;51.024;7.540;2023-11-21T07:11:14;47.97;;;43.70;;
15454;SDS011;21057;51.024;7.540;2023-11-21T07:13:41;48.90;;;44.87;;
15454;SDS011;21057;51.024;7.540;2023-11-21T07:16:09;48.07;;;44.57;;
15454;SDS011;21057;51.024;7.540;2023-11-21T07:18:36;47.80;;;43.83;;
15454;SDS011;21057;51.024;7.540;2023-11-21T07:21:03;47.97;;;44.10;;
15454;SDS011;21057;51.024;7.540;2023-11-21T07:23:31;49.00;;;44.67;;
15454;SDS011;21057;51.024;7.540;2023-11-21T07:25:57;50.43;;;46.00;;
15454;SDS011;21057;51.024;7.540;2023-11-21T07:28:24;48.03;;;44.07;;
15454;SDS011;21057;51.024;7.540;2023-11-21T07:30:51;51.30;;;47.13;;
15454;SDS011;21057;51.024;7.540;2023-11-21T07:33:19;50.03;;;45.63;;
15454;SDS011;21057;51.024;7.540;2023-11-21T07:35:47;48.60;;;44.10;;
15454;SDS011;21057;51.024;7.540;2023-11-21T07:38:14;50.83;;;46.10;;
15454;SDS011;21057;51.024;7.540;2023-11-21T07:40:41;49.40;;;45.70;;
15454;SDS011;21057;51.024;7.540;2023-11-21T07:43:07;50.80;;;47.30;;
15454;SDS011;21057;51.024;7.540;2023-11-21T07:45:35;47.87;;;43.90;;
15454;SDS011;21057;51.024;7.540;2023-11-21T07:48:02;49.67;;;45.83;;
15454;SDS011;21057;51.024;7.540;2023-11-21T07:50:31;49.83;;;45.73;;
15454;SDS011;21057;51.024;7.540;2023-11-21T07:52:58;48.33;;;44.50;;
15454;SDS011;21057;51.024;7.540;2023-11-21T07:55:25;49.27;;;45.17;;
15454;SDS011;21057;51.024;7.540;2023-11-21T07:57:52;47.67;;;43.53;;
15454;SDS011;21057;51.024;7.540;2023-11-21T08:00:18;49.47;;;45.70;;
15454;SDS011;21057;51.024;7.540;2023-11-21T08:02:46;49.53;;;46.00;;
15454;SDS011;21057;51.024;7.540;2023-11-21T08:05:13;47.00;;;43.30;;
15454;SDS011;21057;51.024;7.540;2023-11-21T08:07:41;47.60;;;42.90;;
15454;SDS011;21057;51.024;7.540;2023-11-21T08:10:08;49.17;;;45.10;;
15454;SDS011;21057;51.024;7.540;2023-11-21T08:12:36;46.67;;;42.93;;
15454;SDS011;21057;51.024;7.540;2023-11-21T08:15:03;50.33;;;46.07;;
15454;SDS011;21057;51.024;7.540;2023-11-21T08:17:32;47.03;;;42.93;;
15454;SDS011;21057;51.024;7.540;2023-11-21T08:19:59;49.70;;;45.33;;
15454;SDS011;21057;51.024;7.540;2023-11-21T08:22:27;49.40;;;45.47;;
15454;SDS011;21057;51.024;7.540;2023-11-21T08:24:55;49.17;;;44.80;;
15454;SDS011;21057;51.024;7.540;2023-11-21T08:27:22;51.00;;;46.57;;
15454;SDS011;21057;51.024;7.540;2023-11-21T08:29:49;48.80;;;44.97;;
15454;SDS011;21057;51.024;7.540;2023-11-21T08:32:17;50.83;;;46.53;;
15454;SDS011;21057;51.024;7.540;2023-11-21T08:34:44;48.13;;;44.13;;
15454;SDS011;21057;51.024;7.540;2023-11-21T08:37:14;49.50;;;45.17;;
15454;SDS011;21057;51.024;7.540;2023-11-21T08:39:41;48.20;;;43.80;;
15454;SDS011;21057;51.024;7.540;2023-11-21T08:42:10;47.97;;;43.50;;
15454;SDS011;21057;51.024;7.540;2023-11-21T08:44:37;49.43;;;44.77;;
15454;SDS011;21057;51.024;7.540;2023-11-21T08:47:05;49.73;;;44.80;;
15454;SDS011;21057;51.024;7.540;2023-11-21T08:49:31;48.43;;;44.50;;
15454;SDS011;21057;51.024;7.540;2023-11-21T08:51:58;46.27;;;41.90;;
15454;SDS011;21057;51.024;7.540;2023-11-21T08:54:25;51.30;;;44.73;;
15454;SDS011;21057;51.024;7.540;2023-11-21T08:56:52;52.17;;;44.13;;
15454;SDS011;21057;51.024;7.540;2023-11-21T08:59:21;46.33;;;42.03;;
15454;SDS011;21057;51.024;7.540;2023-11-21T09:01:49;46.13;;;42.03;;
15454;SDS011;21057;51.024;7.540;2023-11-21T09:04:16;47.03;;;42.60;;
15454;SDS011;21057;51.024;7.540;2023-11-21T09:06:42;47.17;;;43.07;;
15454;SDS011;21057;51.024;7.540;2023-11-21T09:09:09;48.07;;;42.87;;
15454;SDS011;21057;51.024;7.540;2023-11-21T09:11:36;47.33;;;42.40;;
15454;SDS011;21057;51.024;7.540;2023-11-21T09:14:04;48.13;;;43.40;;
15454;SDS011;21057;51.024;7.540;2023-11-21T09:16:32;46.33;;;41.73;;
15454;SDS011;21057;51.024;7.540;2023-11-21T09:18:59;45.90;;;41.73;;
15454;SDS011;21057;51.024;7.540;2023-11-21T09:21:26;48.27;;;43.57;;
15454;SDS011;21057;51.024;7.540;2023-11-21T09:23:53;46.07;;;41.90;;
15454;SDS011;21057;51.024;7.540;2023-11-21T09:26:20;46.40;;;41.43;;
15454;SDS011;21057;51.024;7.540;2023-11-21T09:28:47;48.03;;;43.73;;
15454;SDS011;21057;51.024;7.540;2023-11-21T09:31:14;59.63;;;46.60;;
15454;SDS011;21057;51.024;7.540;2023-11-21T09:33:43;50.63;;;45.63;;
15454;SDS011;21057;51.024;7.540;2023-11-21T09:36:13;50.67;;;45.10;;
15454;SDS011;21057;51.024;7.540;2023-11-21T09:38:40;53.00;;;47.67;;
15454;SDS011;21057;51.024;7.540;2023-11-21T09:41:09;51.53;;;45.97;;
15454;SDS011;21057;51.024;7.540;2023-11-21T09:43:42;48.93;;;44.27;;
15454;SDS011;21057;51.024;7.540;2023-11-21T09:46:11;48.70;;;42.63;;
15454;SDS011;21057;51.024;7.540;2023-11-21T09:48:46;48.97;;;44.00;;
15454;SDS011;21057;51.024;7.540;2023-11-21T09:51:16;47.90;;;43.40;;
15454;SDS011;21057;51.024;7.540;2023-11-21T09:53:46;46.30;;;42.17;;
15454;SDS011;21057;51.024;7.540;2023-11-21T09:56:17;48.73;;;43.93;;
15454;SDS011;21057;51.024;7.540;2023-11-21T09:58:50;48.50;;;44.30;;
15454;SDS011;21057;51.024;7.540;2023-11-21T10:01:18;48.13;;;43.87;;
15454;SDS011;21057;51.024;7.540;2023-11-21T10:03:48;46.33;;;42.17;;
15454;SDS011;21057;51.024;7.540;2023-11-21T10:06:15;46.40;;;41.23;;
15454;SDS011;21057;51.024;7.540;2023-11-21T10:08:44;48.57;;;43.70;;
15454;SDS011;21057;51.024;7.540;2023-11-21T10:11:12;44.07;;;40.03;;
15454;SDS011;21057;51.024;7.540;2023-11-21T10:13:44;45.37;;;40.80;;
15454;SDS011;21057;51.024;7.540;2023-11-21T10:16:13;42.67;;;38.63;;
15454;SDS011;21057;51.024;7.540;2023-11-21T10:18:44;43.67;;;39.50;;
15454;SDS011;21057;51.024;7.540;2023-11-21T10:21:12;42.07;;;38.13;;
15454;SDS011;21057;51.024;7.540;2023-11-21T10:23:39;43.70;;;39.73;;
15454;SDS011;21057;51.024;7.540;2023-11-21T10:26:06;42.60;;;38.63;;
15454;SDS011;21057;51.024;7.540;2023-11-21T10:28:41;45.10;;;40.77;;
15454;SDS011;21057;51.024;7.540;2023-11-21T10:31:08;46.33;;;41.93;;
15454;SDS011;21057;51.024;7.540;2023-11-21T10:33:35;46.03;;;41.53;;
15454;SDS011;21057;51.024;7.540;2023-11-21T10:36:02;43.47;;;39.33;;
15454;SDS011;21057;51.024;7.540;2023-11-21T10:38:32;43.27;;;39.73;;
15454;SDS011;21057;51.024;7.540;2023-11-21T10:41:09;44.27;;;40.67;;
15454;SDS011;21057;51.024;7.540;2023-11-21T10:43:39;43.00;;;39.30;;
15454;SDS011;21057;51.024;7.540;2023-11-21T10:46:06;42.47;;;38.70;;
15454;SDS011;21057;51.024;7.540;2023-11-21T10:48:37;42.70;;;38.87;;
15454;SDS011;21057;51.024;7.540;2023-11-21T10:51:06;40.87;;;36.87;;
15454;SDS011;21057;51.024;7.540;2023-11-21T10:53:36;42.43;;;38.90;;
15454;SDS011;21057;51.024;7.540;2023-11-21T10:56:06;45.07;;;40.50;;
15454;SDS011;21057;51.024;7.540;2023-11-21T10:58:35;42.73;;;39.00;;
15454;SDS011;21057;51.024;7.540;2023-11-21T11:01:03;43.77;;;39.87;;
15454;SDS011;21057;51.024;7.540;2023-11-21T11:03:32;45.23;;;40.87;;
15454;SDS011;21057;51.024;7.540;2023-11-21T11:06:02;38.90;;;35.27;;
15454;SDS011;21057;51.024;7.540;2023-11-21T11:08:32;41.30;;;38.03;;
15454;SDS011;21057;51.024;7.540;2023-11-21T11:11:02;41.57;;;37.37;;
15454;SDS011;21057;51.024;7.540;2023-11-21T11:13:29;39.23;;;35.57;;
15454;SDS011;21057;51.024;7.540;2023-11-21T11:15:57;40.47;;;36.63;;
15454;SDS011;21057;51.024;7.540;2023-11-21T11:18:26;38.63;;;35.33;;
15454;SDS011;21057;51.024;7.540;2023-11-21T11:20:54;39.57;;;36.13;;
15454;SDS011;21057;51.024;7.540;2023-11-21T11:23:32;42.07;;;37.83;;
15454;SDS011;21057;51.024;7.540;2023-11-21T11:26:20;41.13;;;36.87;;
15454;SDS011;21057;51.024;7.540;2023-11-21T11:28:59;40.37;;;36.40;;
15454;SDS011;21057;51.024;7.540;2023-11-21T11:31:36;39.03;;;35.63;;
15454;SDS011;21057;51.024;7.540;2023-11-21T11:34:14;39.93;;;36.47;;
15454;SDS011;21057;51.024;7.540;2023-11-21T11:36:52;39.93;;;36.57;;
15454;SDS011;21057;51.024;7.540;2023-11-21T11:39:28;43.10;;;38.43;;
15454;SDS011;21057;51.024;7.540;2023-11-21T11:41:58;44.10;;;40.50;;
15454;SDS011;21057;51.024;7.540;2023-11-21T11:47:22;40.77;;;37.57;;
15454;SDS011;21057;51.024;7.540;2023-11-21T11:52:42;38.47;;;35.23;;
15454;SDS011;21057;51.024;7.540;2023-11-21T11:55:10;36.73;;;33.33;;
15454;SDS011;21057;51.024;7.540;2023-11-21T11:57:40;35.97;;;33.07;;
15454;SDS011;21057;51.024;7.540;2023-11-21T12:00:11;35.90;;;33.13;;
15454;SDS011;21057;51.024;7.540;2023-11-21T12:02:44;35.90;;;32.40;;
15454;SDS011;21057;51.024;7.540;2023-11-21T12:05:13;37.13;;;33.33;;
15454;SDS011;21057;51.024;7.540;2023-11-21T12:07:42;34.27;;;31.53;;
15454;SDS011;21057;51.024;7.540;2023-11-21T12:10:11;35.53;;;32.23;;
15454;SDS011;21057;51.024;7.540;2023-11-21T12:12:43;34.33;;;32.03;;
15454;SDS011;21057;51.024;7.540;2023-11-21T12:15:11;38.60;;;31.67;;
15454;SDS011;21057;51.024;7.540;2023-11-21T12:17:39;31.27;;;29.00;;
15454;SDS011;21057;51.024;7.540;2023-11-21T12:20:06;31.83;;;29.50;;
15454;SDS011;21057;51.024;7.540;2023-11-21T12:22:41;29.93;;;27.60;;
15454;SDS011;21057;51.024;7.540;2023-11-21T12:25:09;30.77;;;28.33;;
15454;SDS011;21057;51.024;7.540;2023-11-21T12:27:40;32.37;;;29.93;;
15454;SDS011;21057;51.024;7.540;2023-11-21T12:30:09;33.00;;;29.77;;
15454;SDS011;21057;51.024;7.540;2023-11-21T12:32:38;31.80;;;28.67;;
15454;SDS011;21057;51.024;7.540;2023-11-21T12:35:06;31.10;;;28.77;;
15454;SDS011;21057;51.024;7.540;2023-11-21T12:37:34;30.20;;;27.27;;
15454;SDS011;21057;51.024;7.540;2023-11-21T12:40:02;31.37;;;28.57;;
15454;SDS011;21057;51.024;7.540;2023-11-21T12:42:29;32.03;;;29.63;;
15454;SDS011;21057;51.024;7.540;2023-11-21T12:45:12;31.63;;;29.07;;
15454;SDS011;21057;51.024;7.540;2023-11-21T12:47:46;31.63;;;28.80;;
15454;SDS011;21057;51.024;7.540;2023-11-21T12:50:14;33.33;;;30.53;;
15454;SDS011;21057;51.024;7.540;2023-11-21T12:52:41;32.70;;;30.03;;
15454;SDS011;21057;51.024;7.540;2023-11-21T12:55:12;32.40;;;29.73;;
15454;SDS011;21057;51.024;7.540;2023-11-21T12:57:43;32.00;;;29.70;;
15454;SDS011;21057;51.024;7.540;2023-11-21T13:00:12;33.90;;;31.33;;
15454;SDS011;21057;51.024;7.540;2023-11-21T13:02:51;32.90;;;30.17;;
15454;SDS011;21057;51.024;7.540;2023-11-21T13:05:28;35.73;;;32.53;;
15454;SDS011;21057;51.024;7.540;2023-11-21T13:07:56;34.20;;;31.80;;
15454;SDS011;21057;51.024;7.540;2023-11-21T13:10:25;36.27;;;32.67;;
15454;SDS011;21057;51.024;7.540;2023-11-21T13:12:56;34.27;;;31.60;;
15454;SDS011;21057;51.024;7.540;2023-11-21T13:15:26;34.93;;;32.10;;
15454;SDS011;21057;51.024;7.540;2023-11-21T13:17:53;35.40;;;32.13;;
15454;SDS011;21057;51.024;7.540;2023-11-21T13:20:22;33.60;;;30.83;;
15454;SDS011;21057;51.024;7.540;2023-11-21T13:22:50;33.60;;;30.70;;
15454;SDS011;21057;51.024;7.540;2023-11-21T13:25:19;32.47;;;29.80;;
15454;SDS011;21057;51.024;7.540;2023-11-21T13:27:47;34.70;;;31.93;;
15454;SDS011;21057;51.024;7.540;2023-11-21T13:30:14;32.30;;;29.93;;
15454;SDS011;21057;51.024;7.540;2023-11-21T13:32:43;34.47;;;32.00;;
15454;SDS011;21057;51.024;7.540;2023-11-21T13:35:10;34.07;;;31.03;;
15454;SDS011;21057;51.024;7.540;2023-11-21T13:37:46;32.93;;;30.67;;
15454;SDS011;21057;51.024;7.540;2023-11-21T13:40:16;36.80;;;33.60;;
15454;SDS011;21057;51.024;7.540;2023-11-21T13:42:48;34.20;;;31.57;;
15454;SDS011;21057;51.024;7.540;2023-11-21T13:45:18;34.60;;;31.70;;
15454;SDS011;21057;51.024;7.540;2023-11-21T13:47:48;34.53;;;32.23;;
15454;SDS011;21057;51.024;7.540;2023-11-21T13:50:17;35.03;;;32.30;;
15454;SDS011;21057;51.024;7.540;2023-11-21T13:52:48;35.77;;;32.87;;
15454;SDS011;21057;51.024;7.540;2023-11-21T13:55:16;34.37;;;31.97;;
15454;SDS011;21057;51.024;7.540;2023-11-21T13:57:42;34.97;;;32.67;;
15454;SDS011;21057;51.024;7.540;2023-11-21T14:00:12;37.27;;;34.37;;
15454;SDS011;21057;51.024;7.540;2023-11-21T14:03:02;32.33;;;30.23;;
15454;SDS011;21057;51.024;7.540;2023-11-21T14:05:33;34.13;;;31.57;;
15454;SDS011;21057;51.024;7.540;2023-11-21T14:08:00;35.67;;;33.13;;
15454;SDS011;21057;51.024;7.540;2023-11-21T14:10:29;36.27;;;33.10;;
15454;SDS011;21057;51.024;7.540;2023-11-21T14:13:05;36.70;;;34.10;;
15454;SDS011;21057;51.024;7.540;2023-11-21T14:15:32;39.37;;;36.33;;
15454;SDS011;21057;51.024;7.540;2023-11-21T14:18:04;38.73;;;36.30;;
15454;SDS011;21057;51.024;7.540;2023-11-21T14:20:33;37.00;;;34.40;;
15454;SDS011;21057;51.024;7.540;2023-11-21T14:23:01;39.27;;;35.80;;
15454;SDS011;21057;51.024;7.540;2023-11-21T14:25:29;38.03;;;34.90;;
15454;SDS011;21057;51.024;7.540;2023-11-21T14:27:57;37.00;;;34.50;;
15454;SDS011;21057;51.024;7.540;2023-11-21T14:30:23;36.33;;;33.50;;
15454;SDS011;21057;51.024;7.540;2023-11-21T14:32:52;36.87;;;33.97;;